createdAt,value
2017-02-02T00:00:03.322Z,1004.48
2017-02-02T00:01:03.291Z,1004.52
2017-02-02T00:02:03.263Z,1004.53
2017-02-02T00:03:03.235Z,1004.46
2017-02-02T00:04:03.211Z,1004.5
2017-02-02T00:05:03.189Z,1004.5
2017-02-02T00:06:03.169Z,1004.48
2017-02-02T00:07:03.139Z,1004.46
2017-02-02T00:08:03.119Z,1004.4
2017-02-02T00:09:03.089Z,1004.44
2017-02-02T00:10:03.066Z,1004.43
2017-02-02T00:11:03.038Z,1004.43
2017-02-02T00:12:03.017Z,1004.42
2017-02-02T00:13:02.986Z,1004.42
2017-02-02T00:14:02.975Z,1004.38
2017-02-02T00:15:02.945Z,1004.39
2017-02-02T00:16:02.917Z,1004.37
2017-02-02T00:17:02.887Z,1004.39
2017-02-02T00:18:02.864Z,1004.35
2017-02-02T00:19:02.845Z,1004.39
2017-02-02T00:20:02.816Z,1004.36
2017-02-02T00:21:02.793Z,1004.39
2017-02-02T00:22:02.769Z,1004.39
2017-02-02T00:23:02.741Z,1004.42
2017-02-02T00:24:02.714Z,1004.4
2017-02-02T00:25:02.687Z,1004.37
2017-02-02T00:26:02.664Z,1004.38
2017-02-02T00:27:02.643Z,1004.37
2017-02-02T00:28:02.614Z,1004.37
2017-02-02T00:29:02.593Z,1004.33
2017-02-02T00:30:02.570Z,1004.35
2017-02-02T00:31:02.550Z,1004.35
2017-02-02T00:32:02.525Z,1004.36
2017-02-02T00:33:02.492Z,1004.31
2017-02-02T00:34:02.468Z,1004.34
2017-02-02T00:35:02.442Z,1004.34
2017-02-02T00:36:02.421Z,1004.32
2017-02-02T00:37:02.395Z,1004.31
2017-02-02T00:38:02.374Z,1004.33
2017-02-02T00:39:02.343Z,1004.32
2017-02-02T00:40:02.323Z,1004.35
2017-02-02T00:41:02.297Z,1004.35
2017-02-02T00:42:02.271Z,1004.32
2017-02-02T00:43:02.247Z,1004.31
2017-02-02T00:44:02.223Z,1004.33
2017-02-02T00:45:02.249Z,1004.33
2017-02-02T00:46:02.179Z,1004.31
2017-02-02T00:47:02.160Z,1004.29
2017-02-02T00:48:02.131Z,1004.3
2017-02-02T00:49:02.108Z,1004.32
2017-02-02T00:50:02.074Z,1004.29
2017-02-02T00:51:02.057Z,1004.32
2017-02-02T00:52:02.032Z,1004.28
2017-02-02T00:53:02.005Z,1004.28
2017-02-02T00:54:01.977Z,1004.3
2017-02-02T00:55:01.956Z,1004.29
2017-02-02T00:56:01.933Z,1004.27
2017-02-02T00:57:01.899Z,1004.24
2017-02-02T00:58:01.884Z,1004.26
2017-02-02T00:59:01.851Z,1004.24
2017-02-02T01:00:01.831Z,1004.22
2017-02-02T01:01:01.803Z,1004.2
2017-02-02T01:02:01.780Z,1004.19
2017-02-02T01:03:01.763Z,1004.25
2017-02-02T01:04:01.731Z,1004.23
2017-02-02T01:05:01.710Z,1004.19
2017-02-02T01:06:01.680Z,1004.18
2017-02-02T01:07:01.654Z,1004.17
2017-02-02T01:08:01.634Z,1004.17
2017-02-02T01:09:01.606Z,1004.18
2017-02-02T01:10:01.589Z,1004.15
2017-02-02T01:11:01.558Z,1004.2
2017-02-02T01:12:01.535Z,1004.14
2017-02-02T01:13:01.506Z,1004.12
2017-02-02T01:14:01.485Z,1004.1
2017-02-02T01:15:01.465Z,1004.11
2017-02-02T01:16:01.436Z,1004.1
2017-02-02T01:17:01.414Z,1004.12
2017-02-02T01:18:01.385Z,1004.12
2017-02-02T01:19:01.362Z,1004.11
2017-02-02T01:20:01.343Z,1004.14
2017-02-02T01:21:01.313Z,1004.11
2017-02-02T01:22:01.285Z,1004.11
2017-02-02T01:23:01.272Z,1004.1
2017-02-02T01:24:01.241Z,1004.12
2017-02-02T01:25:01.215Z,1004.12
2017-02-02T01:26:01.189Z,1004.09
2017-02-02T01:27:01.168Z,1004.17
2017-02-02T01:28:01.139Z,1004.15
2017-02-02T01:29:01.119Z,1004.11
2017-02-02T01:30:01.097Z,1004.13
2017-02-02T01:31:01.068Z,1004.12
2017-02-02T01:32:01.046Z,1004.13
2017-02-02T01:33:01.019Z,1004.1
2017-02-02T01:34:00.996Z,1004.09
2017-02-02T01:35:00.976Z,1004.08
2017-02-02T01:36:00.946Z,1004.12
2017-02-02T01:37:00.917Z,1004.05
2017-02-02T01:38:00.894Z,1004.07
2017-02-02T01:39:00.874Z,1004.06
2017-02-02T01:40:00.844Z,1004.07
2017-02-02T01:41:00.821Z,1004.07
2017-02-02T01:42:00.804Z,1004.04
2017-02-02T01:43:00.782Z,1004.04
2017-02-02T01:44:00.751Z,1004.03
2017-02-02T01:45:00.723Z,1004.05
2017-02-02T01:46:00.698Z,1004.04
2017-02-02T01:47:00.674Z,1004.03
2017-02-02T01:48:00.648Z,1004
2017-02-02T01:49:00.627Z,1004
2017-02-02T01:50:00.602Z,1004
2017-02-02T01:51:00.579Z,1003.97
2017-02-02T01:52:00.553Z,1004.03
2017-02-02T01:53:00.525Z,1003.99
2017-02-02T01:54:00.505Z,1003.96
2017-02-02T01:55:00.484Z,1003.92
2017-02-02T01:56:00.454Z,1003.92
2017-02-02T01:57:00.434Z,1003.92
2017-02-02T01:58:00.402Z,1003.93
2017-02-02T01:59:00.380Z,1003.92
2017-02-02T02:00:00.351Z,1003.91
2017-02-02T02:01:00.332Z,1003.93
2017-02-02T02:02:00.306Z,1003.94
2017-02-02T02:03:00.281Z,1003.94
2017-02-02T02:04:00.257Z,1003.93
2017-02-02T02:05:00.230Z,1003.96
2017-02-02T02:06:00.210Z,1003.94
2017-02-02T02:07:00.181Z,1003.93
2017-02-02T02:08:00.161Z,1003.93
2017-02-02T02:09:00.139Z,1003.92
2017-02-02T02:10:00.107Z,1003.93
2017-02-02T02:11:00.086Z,1003.93
2017-02-02T02:12:00.059Z,1003.85
2017-02-02T02:13:00.033Z,1003.89
2017-02-02T02:14:00.011Z,1003.9
2017-02-02T02:14:59.983Z,1003.87
2017-02-02T02:15:59.965Z,1003.8
2017-02-02T02:16:59.938Z,1003.8
2017-02-02T02:17:59.914Z,1003.81
2017-02-02T02:18:59.892Z,1003.8
2017-02-02T02:19:59.868Z,1003.74
2017-02-02T02:20:59.841Z,1003.75
2017-02-02T02:21:59.820Z,1003.74
2017-02-02T02:22:59.788Z,1003.72
2017-02-02T02:23:59.771Z,1003.72
2017-02-02T02:24:59.739Z,1003.77
2017-02-02T02:25:59.716Z,1003.75
2017-02-02T02:26:59.686Z,1003.75
2017-02-02T02:27:59.669Z,1003.73
2017-02-02T02:28:59.642Z,1003.72
2017-02-02T02:29:59.647Z,1003.73
2017-02-02T02:30:59.595Z,1003.72
2017-02-02T02:31:59.573Z,1003.71
2017-02-02T02:32:59.547Z,1003.74
2017-02-02T02:33:59.524Z,1003.75
2017-02-02T02:34:59.494Z,1003.75
2017-02-02T02:35:59.475Z,1003.75
2017-02-02T02:36:59.452Z,1003.73
2017-02-02T02:37:59.423Z,1003.72
2017-02-02T02:38:59.398Z,1003.71
2017-02-02T02:39:59.371Z,1003.69
2017-02-02T02:40:59.352Z,1003.73
2017-02-02T02:41:59.330Z,1003.7
2017-02-02T02:42:59.299Z,1003.69
2017-02-02T02:43:59.273Z,1003.68
2017-02-02T02:44:59.251Z,1003.69
2017-02-02T02:45:59.227Z,1003.68
2017-02-02T02:46:59.201Z,1003.7
2017-02-02T02:47:59.177Z,1003.64
2017-02-02T02:48:59.155Z,1003.65
2017-02-02T02:49:59.135Z,1003.68
2017-02-02T02:50:59.106Z,1003.62
2017-02-02T02:51:59.083Z,1003.64
2017-02-02T02:52:59.054Z,1003.65
2017-02-02T02:53:59.033Z,1003.65
2017-02-02T02:54:59.014Z,1003.63
2017-02-02T02:55:58.983Z,1003.64
2017-02-02T02:56:58.959Z,1003.62
2017-02-02T02:57:58.938Z,1003.64
2017-02-02T02:58:58.911Z,1003.64
2017-02-02T02:59:58.891Z,1003.63
2017-02-02T03:00:58.860Z,1003.64
2017-02-02T03:01:58.839Z,1003.61
2017-02-02T03:02:58.813Z,1003.61
2017-02-02T03:03:58.789Z,1003.6
2017-02-02T03:04:58.767Z,1003.58
2017-02-02T03:05:58.740Z,1003.57
2017-02-02T03:06:58.716Z,1003.56
2017-02-02T03:07:58.698Z,1003.59
2017-02-02T03:08:58.668Z,1003.59
2017-02-02T03:09:58.640Z,1003.59
2017-02-02T03:10:58.626Z,1003.6
2017-02-02T03:11:58.595Z,1003.6
2017-02-02T03:12:58.574Z,1003.59
2017-02-02T03:13:58.544Z,1003.61
2017-02-02T03:14:58.521Z,1003.58
2017-02-02T03:15:58.493Z,1003.56
2017-02-02T03:16:58.472Z,1003.56
2017-02-02T03:17:58.448Z,1003.54
2017-02-02T03:18:58.431Z,1003.6
2017-02-02T03:19:58.400Z,1003.58
2017-02-02T03:20:58.378Z,1003.58
2017-02-02T03:21:58.357Z,1003.58
2017-02-02T03:22:58.345Z,1003.57
2017-02-02T03:23:58.308Z,1003.59
2017-02-02T03:24:58.278Z,1003.57
2017-02-02T03:25:58.253Z,1003.56
2017-02-02T03:26:58.228Z,1003.53
2017-02-02T03:27:58.207Z,1003.56
2017-02-02T03:28:58.185Z,1003.53
2017-02-02T03:29:58.164Z,1003.56
2017-02-02T03:30:58.134Z,1003.5
2017-02-02T03:31:58.115Z,1003.55
2017-02-02T03:32:58.090Z,1003.56
2017-02-02T03:33:58.065Z,1003.5
2017-02-02T03:34:58.039Z,1003.52
2017-02-02T03:35:58.015Z,1003.49
2017-02-02T03:36:57.990Z,1003.52
2017-02-02T03:37:57.967Z,1003.47
2017-02-02T03:38:57.942Z,1003.48
2017-02-02T03:39:57.919Z,1003.46
2017-02-02T03:40:57.893Z,1003.46
2017-02-02T03:41:57.868Z,1003.43
2017-02-02T03:42:57.847Z,1003.43
2017-02-02T03:43:57.824Z,1003.4
2017-02-02T03:44:57.793Z,1003.39
2017-02-02T03:45:57.770Z,1003.36
2017-02-02T03:46:57.748Z,1003.35
2017-02-02T03:47:57.724Z,1003.41
2017-02-02T03:48:57.703Z,1003.35
2017-02-02T03:49:57.675Z,1003.36
2017-02-02T03:50:57.656Z,1003.39
2017-02-02T03:51:57.628Z,1003.43
2017-02-02T03:52:57.603Z,1003.42
2017-02-02T03:53:57.580Z,1003.38
2017-02-02T03:54:57.557Z,1003.41
2017-02-02T03:55:57.532Z,1003.4
2017-02-02T03:56:57.509Z,1003.38
2017-02-02T03:57:57.486Z,1003.38
2017-02-02T03:58:57.460Z,1003.36
2017-02-02T03:59:57.438Z,1003.31
2017-02-02T04:00:57.421Z,1003.33
2017-02-02T04:01:57.386Z,1003.33
2017-02-02T04:02:57.364Z,1003.26
2017-02-02T04:03:57.343Z,1003.25
2017-02-02T04:04:57.316Z,1003.25
2017-02-02T04:05:57.295Z,1003.25
2017-02-02T04:06:57.265Z,1003.19
2017-02-02T04:07:57.244Z,1003.24
2017-02-02T04:08:57.220Z,1003.24
2017-02-02T04:09:57.195Z,1003.25
2017-02-02T04:10:57.173Z,1003.25
2017-02-02T04:11:57.152Z,1003.25
2017-02-02T04:12:57.120Z,1003.2
2017-02-02T04:13:57.101Z,1003.24
2017-02-02T04:14:57.072Z,1003.26
2017-02-02T04:15:57.050Z,1003.26
2017-02-02T04:16:57.025Z,1003.27
2017-02-02T04:17:57.009Z,1003.26
2017-02-02T04:18:56.982Z,1003.29
2017-02-02T04:19:56.952Z,1003.31
2017-02-02T04:20:56.938Z,1003.32
2017-02-02T04:21:56.906Z,1003.28
2017-02-02T04:22:56.920Z,1003.25
2017-02-02T04:23:56.860Z,1003.26
2017-02-02T04:24:56.835Z,1003.25
2017-02-02T04:25:56.815Z,1003.24
2017-02-02T04:26:56.784Z,1003.27
2017-02-02T04:27:56.764Z,1003.23
2017-02-02T04:28:56.740Z,1003.21
2017-02-02T04:29:56.713Z,1003.2
2017-02-02T04:30:56.688Z,1003.23
2017-02-02T04:31:56.670Z,1003.21
2017-02-02T04:32:56.640Z,1003.23
2017-02-02T04:33:56.622Z,1003.22
2017-02-02T04:34:56.600Z,1003.26
2017-02-02T04:35:56.573Z,1003.23
2017-02-02T04:36:56.549Z,1003.23
2017-02-02T04:37:56.524Z,1003.22
2017-02-02T04:38:56.498Z,1003.24
2017-02-02T04:39:56.474Z,1003.23
2017-02-02T04:40:56.458Z,1003.22
2017-02-02T04:41:56.427Z,1003.25
2017-02-02T04:42:56.406Z,1003.23
2017-02-02T04:43:56.376Z,1003.22
2017-02-02T04:44:56.353Z,1003.23
2017-02-02T04:45:56.330Z,1003.24
2017-02-02T04:46:56.304Z,1003.24
2017-02-02T04:47:56.284Z,1003.26
2017-02-02T04:48:56.258Z,1003.22
2017-02-02T04:49:56.239Z,1003.22
2017-02-02T04:50:56.212Z,1003.18
2017-02-02T04:51:56.188Z,1003.15
2017-02-02T04:52:56.160Z,1003.18
2017-02-02T04:53:56.140Z,1003.22
2017-02-02T04:54:56.117Z,1003.18
2017-02-02T04:55:56.091Z,1003.19
2017-02-02T04:56:56.069Z,1003.16
2017-02-02T04:57:56.047Z,1003.14
2017-02-02T04:58:56.017Z,1003.17
2017-02-02T04:59:55.993Z,1003.15
2017-02-02T05:00:55.972Z,1003.12
2017-02-02T05:01:55.948Z,1003.14
2017-02-02T05:02:55.918Z,1003.13
2017-02-02T05:03:55.903Z,1003.14
2017-02-02T05:04:55.874Z,1003.13
2017-02-02T05:05:55.846Z,1003.08
2017-02-02T05:06:55.828Z,1003.08
2017-02-02T05:07:55.802Z,1003.05
2017-02-02T05:08:55.783Z,1003
2017-02-02T05:09:55.752Z,1002.99
2017-02-02T05:10:55.730Z,1002.95
2017-02-02T05:11:55.710Z,1002.91
2017-02-02T05:12:55.680Z,1002.94
2017-02-02T05:13:55.658Z,1002.97
2017-02-02T05:14:55.639Z,1003
2017-02-02T05:15:55.608Z,1003
2017-02-02T05:16:55.587Z,1003.04
2017-02-02T05:17:55.561Z,1002.97
2017-02-02T05:18:55.537Z,1002.99
2017-02-02T05:19:55.518Z,1003
2017-02-02T05:20:55.493Z,1002.99
2017-02-02T05:21:55.466Z,1002.94
2017-02-02T05:22:55.444Z,1002.95
2017-02-02T05:23:55.421Z,1002.92
2017-02-02T05:24:55.394Z,1002.92
2017-02-02T05:25:55.373Z,1002.91
2017-02-02T05:26:55.349Z,1002.91
2017-02-02T05:27:55.322Z,1002.9
2017-02-02T05:28:55.304Z,1002.92
2017-02-02T05:29:55.275Z,1002.94
2017-02-02T05:30:55.252Z,1002.91
2017-02-02T05:31:55.231Z,1002.93
2017-02-02T05:32:55.209Z,1002.94
2017-02-02T05:33:55.179Z,1002.95
2017-02-02T05:34:55.157Z,1002.94
2017-02-02T05:35:55.128Z,1002.97
2017-02-02T05:36:55.109Z,1002.96
2017-02-02T05:37:55.081Z,1002.99
2017-02-02T05:38:55.056Z,1002.99
2017-02-02T05:39:55.034Z,1002.98
2017-02-02T05:40:55.014Z,1002.97
2017-02-02T05:41:54.984Z,1002.94
2017-02-02T05:42:54.960Z,1002.96
2017-02-02T05:43:54.963Z,1002.94
2017-02-02T05:44:54.910Z,1002.98
2017-02-02T05:45:54.893Z,1003.03
2017-02-02T05:46:54.865Z,1003.04
2017-02-02T05:47:54.843Z,1002.99
2017-02-02T05:48:54.812Z,1003.02
2017-02-02T05:49:54.791Z,1003.02
2017-02-02T05:50:54.765Z,1003
2017-02-02T05:51:54.748Z,1002.96
2017-02-02T05:52:54.718Z,1002.93
2017-02-02T05:53:54.771Z,1002.94
2017-02-02T05:54:54.668Z,1002.91
2017-02-02T05:55:54.647Z,1002.87
2017-02-02T05:56:54.617Z,1002.88
2017-02-02T05:57:54.596Z,1002.86
2017-02-02T05:58:54.574Z,1002.88
2017-02-02T05:59:54.555Z,1002.9
2017-02-02T06:00:54.524Z,1002.92
2017-02-02T06:01:54.507Z,1002.95
2017-02-02T06:02:54.484Z,1002.94
2017-02-02T06:03:54.462Z,1002.95
2017-02-02T06:04:54.427Z,1002.96
2017-02-02T06:05:54.401Z,1002.97
2017-02-02T06:06:54.381Z,1002.93
2017-02-02T06:07:54.362Z,1002.95
2017-02-02T06:08:54.327Z,1002.95
2017-02-02T06:09:54.309Z,1002.97
2017-02-02T06:10:54.280Z,1002.94
2017-02-02T06:11:54.264Z,1002.98
2017-02-02T06:12:54.232Z,1002.97
2017-02-02T06:13:54.211Z,1002.99
2017-02-02T06:14:54.187Z,1002.97
2017-02-02T06:15:54.166Z,1003
2017-02-02T06:16:54.133Z,1002.97
2017-02-02T06:17:54.125Z,1002.97
2017-02-02T06:18:54.085Z,1002.95
2017-02-02T06:19:54.066Z,1002.96
2017-02-02T06:20:54.043Z,1002.94
2017-02-02T06:21:54.013Z,1002.97
2017-02-02T06:22:53.994Z,1002.95
2017-02-02T06:23:53.969Z,1002.96
2017-02-02T06:24:53.942Z,1002.96
2017-02-02T06:25:53.916Z,1002.98
2017-02-02T06:26:53.901Z,1002.98
2017-02-02T06:27:53.869Z,1002.98
2017-02-02T06:28:53.850Z,1003.01
2017-02-02T06:29:53.819Z,1002.99
2017-02-02T06:30:53.797Z,1003
2017-02-02T06:31:53.774Z,1003.02
2017-02-02T06:32:53.748Z,1003.01
2017-02-02T06:33:53.726Z,1003
2017-02-02T06:34:53.707Z,1003.02
2017-02-02T06:35:53.677Z,1002.95
2017-02-02T06:36:53.653Z,1002.91
2017-02-02T06:37:53.626Z,1002.92
2017-02-02T06:38:53.602Z,1002.98
2017-02-02T06:39:53.584Z,1003.02
2017-02-02T06:40:53.553Z,1003.06
2017-02-02T06:41:53.533Z,1003.05
2017-02-02T06:42:53.505Z,1003.06
2017-02-02T06:43:53.480Z,1003.02
2017-02-02T06:44:53.461Z,1003
2017-02-02T06:45:53.430Z,1002.97
2017-02-02T06:46:53.407Z,1003
2017-02-02T06:47:53.387Z,1003.05
2017-02-02T06:48:53.357Z,1003.02
2017-02-02T06:49:53.339Z,1003.03
2017-02-02T06:50:53.316Z,1003.03
2017-02-02T06:51:53.284Z,1003.07
2017-02-02T06:52:53.265Z,1003.03
2017-02-02T06:53:53.238Z,1003.04
2017-02-02T06:54:53.212Z,1003.03
2017-02-02T06:55:53.186Z,1003.07
2017-02-02T06:56:53.162Z,1003.04
2017-02-02T06:57:53.143Z,1003.03
2017-02-02T06:58:53.114Z,1003.05
2017-02-02T06:59:53.093Z,1003.01
2017-02-02T07:00:53.061Z,1003.01
2017-02-02T07:01:53.038Z,1003.01
2017-02-02T07:02:53.013Z,1003.05
2017-02-02T07:03:52.987Z,1003.06
2017-02-02T07:04:53.011Z,1003.06
2017-02-02T07:05:52.934Z,1003.09
2017-02-02T07:06:52.912Z,1003.09
2017-02-02T07:07:52.888Z,1003.11
2017-02-02T07:08:52.919Z,1003.13
2017-02-02T07:09:52.838Z,1003.12
2017-02-02T07:10:52.912Z,1003.14
2017-02-02T07:11:52.795Z,1003.12
2017-02-02T07:12:52.766Z,1003.1
2017-02-02T07:13:52.738Z,1003.06
2017-02-02T07:14:52.718Z,1003.08
2017-02-02T07:15:52.688Z,1003.09
2017-02-02T07:16:52.713Z,1003.09
2017-02-02T07:17:52.640Z,1003.08
2017-02-02T07:18:52.618Z,1003.09
2017-02-02T07:19:52.589Z,1003.04
2017-02-02T07:20:52.624Z,1003.05
2017-02-02T07:21:52.539Z,1003.03
2017-02-02T07:22:52.518Z,1003.07
2017-02-02T07:23:52.492Z,1003.07
2017-02-02T07:24:52.470Z,1003.04
2017-02-02T07:25:52.444Z,1003.04
2017-02-02T07:26:52.420Z,1003.02
2017-02-02T07:27:52.394Z,1003
2017-02-02T07:28:52.373Z,1002.94
2017-02-02T07:29:52.347Z,1002.99
2017-02-02T07:30:52.336Z,1002.98
2017-02-02T07:31:52.295Z,1003.03
2017-02-02T07:32:52.280Z,1003.04
2017-02-02T07:33:52.267Z,1003.02
2017-02-02T07:34:52.230Z,1003.02
2017-02-02T07:35:52.198Z,1003.02
2017-02-02T07:36:52.174Z,1003.05
2017-02-02T07:37:52.152Z,1003.01
2017-02-02T07:38:52.129Z,1002.99
2017-02-02T07:39:52.102Z,1003
2017-02-02T07:40:52.081Z,1002.99
2017-02-02T07:41:52.051Z,1002.95
2017-02-02T07:42:52.030Z,1002.96
2017-02-02T07:43:52.009Z,1002.97
2017-02-02T07:44:51.980Z,1003.01
2017-02-02T07:45:51.956Z,1002.98
2017-02-02T07:46:51.931Z,1003.04
2017-02-02T07:47:51.910Z,1003.03
2017-02-02T07:48:51.883Z,1003.03
2017-02-02T07:49:51.871Z,1003.05
2017-02-02T07:50:51.837Z,1003.04
2017-02-02T07:51:51.811Z,1003.01
2017-02-02T07:52:51.785Z,1002.99
2017-02-02T07:53:51.765Z,1003.03
2017-02-02T07:54:51.737Z,1002.98
2017-02-02T07:55:51.717Z,1002.99
2017-02-02T07:56:51.688Z,1003.01
2017-02-02T07:57:51.664Z,1002.99
2017-02-02T07:58:51.640Z,1003.02
2017-02-02T07:59:51.622Z,1002.97
2017-02-02T08:00:51.598Z,1003.05
2017-02-02T08:01:51.571Z,1003.01
2017-02-02T08:02:51.550Z,1002.97
2017-02-02T08:03:51.526Z,1003
2017-02-02T08:04:51.498Z,1003
2017-02-02T08:05:51.479Z,1003.02
2017-02-02T08:06:51.457Z,1002.98
2017-02-02T08:07:51.427Z,1002.96
2017-02-02T08:08:51.406Z,1002.94
2017-02-02T08:09:51.386Z,1002.94
2017-02-02T08:10:51.366Z,1002.9
2017-02-02T08:11:51.335Z,1002.9
2017-02-02T08:12:51.313Z,1002.9
2017-02-02T08:13:51.291Z,1002.87
2017-02-02T08:14:51.274Z,1002.87
2017-02-02T08:15:51.244Z,1002.88
2017-02-02T08:16:51.218Z,1002.91
2017-02-02T08:17:51.202Z,1002.91
2017-02-02T08:18:51.172Z,1002.89
2017-02-02T08:19:51.148Z,1002.89
2017-02-02T08:20:51.125Z,1002.86
2017-02-02T08:21:51.101Z,1002.86
2017-02-02T08:22:51.077Z,1002.85
2017-02-02T08:23:51.056Z,1002.87
2017-02-02T08:24:51.028Z,1002.88
2017-02-02T08:25:51.008Z,1002.89
2017-02-02T08:26:50.987Z,1002.84
2017-02-02T08:27:50.961Z,1002.9
2017-02-02T08:28:50.946Z,1002.96
2017-02-02T08:29:50.919Z,1002.94
2017-02-02T08:30:50.895Z,1002.99
2017-02-02T08:31:50.870Z,1002.93
2017-02-02T08:32:50.855Z,1002.86
2017-02-02T08:33:50.824Z,1002.84
2017-02-02T08:34:50.803Z,1002.84
2017-02-02T08:35:50.782Z,1002.84
2017-02-02T08:36:50.761Z,1002.77
2017-02-02T08:37:50.734Z,1002.74
2017-02-02T08:38:50.710Z,1002.79
2017-02-02T08:39:50.691Z,1002.75
2017-02-02T08:40:50.670Z,1002.73
2017-02-02T08:41:50.646Z,1002.77
2017-02-02T08:42:50.629Z,1002.79
2017-02-02T08:43:50.605Z,1002.76
2017-02-02T08:44:50.584Z,1002.75
2017-02-02T08:45:50.557Z,1002.76
2017-02-02T08:46:50.535Z,1002.78
2017-02-02T08:47:50.514Z,1002.71
2017-02-02T08:48:50.490Z,1002.75
2017-02-02T08:49:50.471Z,1002.77
2017-02-02T08:50:50.450Z,1002.71
2017-02-02T08:51:50.475Z,1002.65
2017-02-02T08:52:50.404Z,1002.63
2017-02-02T08:53:50.433Z,1002.72
2017-02-02T08:54:50.365Z,1002.76
2017-02-02T08:55:50.341Z,1002.8
2017-02-02T08:56:50.333Z,1002.77
2017-02-02T08:57:50.301Z,1002.78
2017-02-02T08:58:50.280Z,1002.77
2017-02-02T08:59:50.261Z,1002.8
2017-02-02T09:00:50.242Z,1002.78
2017-02-02T09:01:50.229Z,1002.83
2017-02-02T09:02:50.209Z,1002.76
2017-02-02T09:03:50.188Z,1002.8
2017-02-02T09:04:50.185Z,1002.8
2017-02-02T09:05:50.159Z,1002.85
2017-02-02T09:06:50.136Z,1002.9
2017-02-02T09:07:50.115Z,1002.84
2017-02-02T09:08:50.108Z,1002.85
2017-02-02T09:09:50.085Z,1002.88
2017-02-02T09:10:50.073Z,1002.92
2017-02-02T09:11:50.055Z,1002.91
2017-02-02T09:12:50.036Z,1002.87
2017-02-02T09:13:50.022Z,1002.86
2017-02-02T09:14:50.007Z,1002.92
2017-02-02T09:15:49.992Z,1002.93
2017-02-02T09:16:49.974Z,1002.96
2017-02-02T09:17:49.971Z,1002.96
2017-02-02T09:18:49.951Z,1002.94
2017-02-02T09:19:49.940Z,1002.93
2017-02-02T09:20:49.915Z,1003.01
2017-02-02T09:21:49.907Z,1003.03
2017-02-02T09:22:49.922Z,1003
2017-02-02T09:23:49.875Z,1002.99
2017-02-02T09:24:49.860Z,1002.97
2017-02-02T09:25:49.855Z,1002.95
2017-02-02T09:26:49.836Z,1002.99
2017-02-02T09:27:49.828Z,1002.96
2017-02-02T09:28:49.807Z,1002.96
2017-02-02T09:29:49.796Z,1002.95
2017-02-02T09:30:49.780Z,1002.92
2017-02-02T09:31:49.771Z,1002.92
2017-02-02T09:32:49.750Z,1002.92
2017-02-02T09:33:49.740Z,1002.94
2017-02-02T09:34:49.728Z,1002.94
2017-02-02T09:35:49.711Z,1002.93
2017-02-02T09:36:49.698Z,1002.9
2017-02-02T09:37:49.689Z,1002.85
2017-02-02T09:38:49.679Z,1002.85
2017-02-02T09:39:49.661Z,1002.83
2017-02-02T09:40:49.653Z,1002.86
2017-02-02T09:41:49.637Z,1002.85
2017-02-02T09:42:49.626Z,1002.86
2017-02-02T09:43:49.619Z,1002.84
2017-02-02T09:44:49.603Z,1002.81
2017-02-02T09:45:49.588Z,1002.8
2017-02-02T09:46:49.575Z,1002.72
2017-02-02T09:47:49.562Z,1002.7
2017-02-02T09:48:49.550Z,1002.75
2017-02-02T09:49:49.543Z,1002.73
2017-02-02T09:50:49.530Z,1002.75
2017-02-02T09:51:49.515Z,1002.69
2017-02-02T09:52:49.501Z,1002.72
2017-02-02T09:53:49.491Z,1002.66
2017-02-02T09:54:49.481Z,1002.67
2017-02-02T09:55:49.465Z,1002.69
2017-02-02T09:56:49.455Z,1002.67
2017-02-02T09:57:49.444Z,1002.63
2017-02-02T09:58:49.428Z,1002.69
2017-02-02T09:59:49.442Z,1002.7
2017-02-02T10:00:49.404Z,1002.67
2017-02-02T10:01:49.389Z,1002.68
2017-02-02T10:02:49.378Z,1002.64
2017-02-02T10:03:49.365Z,1002.68
2017-02-02T10:04:49.360Z,1002.67
2017-02-02T10:05:49.347Z,1002.63
2017-02-02T10:06:49.326Z,1002.58
2017-02-02T10:07:49.313Z,1002.62
2017-02-02T10:08:49.312Z,1002.6
2017-02-02T10:09:49.290Z,1002.58
2017-02-02T10:10:49.274Z,1002.56
2017-02-02T10:11:49.264Z,1002.59
2017-02-02T10:12:49.252Z,1002.56
2017-02-02T10:13:49.239Z,1002.6
2017-02-02T10:14:49.231Z,1002.61
2017-02-02T10:15:49.207Z,1002.55
2017-02-02T10:16:49.199Z,1002.53
2017-02-02T10:17:49.177Z,1002.56
2017-02-02T10:18:49.165Z,1002.53
2017-02-02T10:19:49.152Z,1002.54
2017-02-02T10:20:49.136Z,1002.55
2017-02-02T10:21:49.117Z,1002.48
2017-02-02T10:22:49.207Z,1002.49
2017-02-02T10:23:49.094Z,1002.54
2017-02-02T10:24:49.185Z,1002.53
2017-02-02T10:25:49.062Z,1002.6
2017-02-02T10:26:49.045Z,1002.56
2017-02-02T10:27:49.036Z,1002.61
2017-02-02T10:28:49.019Z,1002.57
2017-02-02T10:29:49.001Z,1002.57
2017-02-02T10:30:48.990Z,1002.54
2017-02-02T10:31:48.972Z,1002.54
2017-02-02T10:32:49.011Z,1002.55
2017-02-02T10:33:48.946Z,1002.52
2017-02-02T10:34:48.985Z,1002.51
2017-02-02T10:35:48.920Z,1002.5
2017-02-02T10:36:48.954Z,1002.51
2017-02-02T10:37:48.896Z,1002.52
2017-02-02T10:38:48.890Z,1002.54
2017-02-02T10:39:48.866Z,1002.52
2017-02-02T10:40:48.857Z,1002.48
2017-02-02T10:41:48.844Z,1002.44
2017-02-02T10:42:48.834Z,1002.44
2017-02-02T10:43:48.826Z,1002.44
2017-02-02T10:44:48.803Z,1002.39
2017-02-02T10:45:48.795Z,1002.43
2017-02-02T10:46:48.783Z,1002.42
2017-02-02T10:47:48.767Z,1002.38
2017-02-02T10:48:48.755Z,1002.35
2017-02-02T10:49:48.742Z,1002.39
2017-02-02T10:50:48.731Z,1002.4
2017-02-02T10:51:48.721Z,1002.38
2017-02-02T10:52:48.710Z,1002.37
2017-02-02T10:53:48.697Z,1002.38
2017-02-02T10:54:48.689Z,1002.41
2017-02-02T10:55:48.669Z,1002.35
2017-02-02T10:56:48.657Z,1002.38
2017-02-02T10:57:48.649Z,1002.33
2017-02-02T10:58:48.635Z,1002.28
2017-02-02T10:59:48.622Z,1002.28
2017-02-02T11:00:48.616Z,1002.23
2017-02-02T11:01:48.598Z,1002.2
2017-02-02T11:02:48.587Z,1002.22
2017-02-02T11:03:48.575Z,1002.14
2017-02-02T11:04:48.563Z,1002.12
2017-02-02T11:05:48.554Z,1002.05
2017-02-02T11:06:48.538Z,1002.08
2017-02-02T11:07:48.532Z,1002.05
2017-02-02T11:08:48.509Z,1002.06
2017-02-02T11:09:48.496Z,1002.1
2017-02-02T11:10:48.486Z,1002.11
2017-02-02T11:11:48.471Z,1002.03
2017-02-02T11:12:48.458Z,1002.03
2017-02-02T11:13:48.449Z,1002.03
2017-02-02T11:14:48.427Z,1002.01
2017-02-02T11:15:48.412Z,1002.04
2017-02-02T11:16:48.409Z,1002.02
2017-02-02T11:17:48.386Z,1001.98
2017-02-02T11:18:48.377Z,1002
2017-02-02T11:19:48.365Z,1002.01
2017-02-02T11:20:48.346Z,1001.98
2017-02-02T11:21:48.327Z,1001.97
2017-02-02T11:22:48.313Z,1001.95
2017-02-02T11:23:48.303Z,1001.91
2017-02-02T11:24:48.280Z,1001.92
2017-02-02T11:25:48.271Z,1001.89
2017-02-02T11:26:48.254Z,1001.9
2017-02-02T11:27:48.239Z,1001.89
2017-02-02T11:28:48.221Z,1001.89
2017-02-02T11:29:48.211Z,1001.85
2017-02-02T11:30:48.196Z,1001.87
2017-02-02T11:31:48.180Z,1001.82
2017-02-02T11:32:48.160Z,1001.78
2017-02-02T11:33:48.145Z,1001.79
2017-02-02T11:34:48.137Z,1001.78
2017-02-02T11:35:48.114Z,1001.74
2017-02-02T11:36:48.101Z,1001.77
2017-02-02T11:37:48.086Z,1001.78
2017-02-02T11:38:48.072Z,1001.74
2017-02-02T11:39:48.065Z,1001.72
2017-02-02T11:40:48.043Z,1001.75
2017-02-02T11:41:48.025Z,1001.72
2017-02-02T11:42:48.010Z,1001.66
2017-02-02T11:43:47.994Z,1001.64
2017-02-02T11:44:47.986Z,1001.62
2017-02-02T11:45:47.971Z,1001.62
2017-02-02T11:46:47.955Z,1001.67
2017-02-02T11:47:47.949Z,1001.64
2017-02-02T11:48:47.940Z,1001.62
2017-02-02T11:49:47.917Z,1001.63
2017-02-02T11:50:47.901Z,1001.58
2017-02-02T11:51:47.893Z,1001.55
2017-02-02T11:52:47.880Z,1001.54
2017-02-02T11:53:47.866Z,1001.53
2017-02-02T11:54:47.854Z,1001.51
2017-02-02T11:55:47.837Z,1001.51
2017-02-02T11:56:47.822Z,1001.48
2017-02-02T11:57:47.810Z,1001.5
2017-02-02T11:58:47.795Z,1001.49
2017-02-02T11:59:47.784Z,1001.44
2017-02-02T12:00:47.771Z,1001.44
2017-02-02T12:01:47.759Z,1001.41
2017-02-02T12:02:47.742Z,1001.45
2017-02-02T12:03:47.731Z,1001.42
2017-02-02T12:04:47.721Z,1001.48
2017-02-02T12:05:47.703Z,1001.37
2017-02-02T12:06:47.696Z,1001.31
2017-02-02T12:07:47.679Z,1001.3
2017-02-02T12:08:47.664Z,1001.27